Time;durP1;ratioP1;P1;durP2;ratioP2;P2;SDS_P1;SDS_P2;PMS_P1;PMS_P2;Temp;Humidity;BMP_temperature;BMP_pressure;BME280_temperature;BME280_humidity;BME280_pressure;Samples;Min_cycle;Max_cycle;Signal;HPM_P1;HPM_P2
2023/08/02 00:01:00;;;;;;;2.95;1.73;;;;;;;23.37;100.00;99635.56;5000721;28;20064;-76
2023/08/02 00:03:26;;;;;;;2.45;1.10;;;;;;;22.86;100.00;99544.28;5006264;28;20038;-77
2023/08/02 00:05:56;;;;;;;2.42;1.27;;;;;;;23.43;100.00;99650.34;5004675;28;20429;-75
2023/08/02 00:08:22;;;;;;;3.88;2.35;;;;;;;23.28;100.00;99638.81;5000700;28;20052;-78
2023/08/02 00:10:47;;;;;;;2.67;1.60;;;;;;;23.33;100.00;99652.75;5005088;28;20120;-77
2023/08/02 00:13:14;;;;;;;3.33;2.33;;;;;;;22.77;100.00;99559.94;5005720;28;20062;-78
2023/08/02 00:15:40;;;;;;;6.88;5.15;;;;;;;23.24;100.00;99656.03;5005953;28;20041;-75
2023/08/02 00:18:05;;;;;;;3.70;1.90;;;;;;;23.15;100.00;99639.59;5004407;28;20033;-74
2023/08/02 00:20:31;;;;;;;4.68;1.60;;;;;;;22.61;100.00;99561.03;5006759;28;20834;-78
2023/08/02 00:22:56;;;;;;;3.50;2.10;;;;;;;22.52;100.00;99546.44;5006325;28;20165;-78
2023/08/02 00:25:23;;;;;;;9.95;2.63;;;;;;;23.07;100.00;99649.94;5004254;28;20038;-78
2023/08/02 00:27:48;;;;;;;3.42;1.48;;;;;;;23.04;100.00;99641.25;5007352;28;20053;-79
2023/08/02 00:30:13;;;;;;;3.60;1.85;;;;;;;22.57;100.00;99567.53;5004497;28;20034;-77
2023/08/02 00:32:46;;;;;;;5.80;1.95;;;;;;;22.50;100.00;99551.88;5010111;28;20026;-76
2023/08/02 00:35:12;;;;;;;;;;;;;;;23.21;100.00;99651.75;5013312;28;20054;-78
2023/08/02 00:37:38;;;;;;;4.50;2.25;;;;;;;22.79;100.00;99626.75;5046458;28;19987;-79
2023/08/02 00:40:04;;;;;;;3.67;1.85;;;;;;;22.92;100.00;99661.59;5013298;28;20042;-77
2023/08/02 00:42:30;;;;;;;3.00;1.90;;;;;;;22.30;100.00;99552.28;5027769;28;20041;-76
2023/08/02 00:44:55;;;;;;;2.55;1.63;;;;;;;22.79;100.00;99658.84;5018047;28;20061;-78
2023/08/02 00:47:22;;;;;;;5.25;2.92;;;;;;;22.83;100.00;99663.06;5016986;28;20111;-76
2023/08/02 00:49:47;;;;;;;1.70;1.08;;;;;;;22.57;100.00;99607.63;5021584;28;20041;-78
2023/08/02 00:52:13;;;;;;;3.10;1.73;;;;;;;22.22;100.00;99578.59;5013835;28;20049;-78
2023/08/02 00:54:39;;;;;;;2.45;1.33;;;;;;;22.66;100.00;99629.31;5019687;28;20038;-78
2023/08/02 00:57:05;;;;;;;4.75;2.70;;;;;;;22.83;100.00;99670.19;5024102;28;20049;-75
2023/08/02 00:59:30;;;;;;;3.13;1.77;;;;;;;22.36;100.00;99596.47;5015095;28;20385;-77
2023/08/02 01:01:56;;;;;;;1.88;1.40;;;;;;;22.18;100.00;99577.91;5010677;28;20042;-77
2023/08/02 01:04:22;;;;;;;3.92;2.42;;;;;;;22.49;100.00;99656.25;5018998;28;21135;-75
2023/08/02 01:06:56;;;;;;;2.42;1.55;;;;;;;21.76;100.00;99562.69;5025880;28;20529;-77
2023/08/02 01:09:29;;;;;;;3.58;2.08;;;;;;;22.29;100.00;99654.81;5015901;28;20046;-77
2023/08/02 01:12:03;;;;;;;3.33;1.92;;;;;;;21.87;100.00;99592.28;5010417;28;20037;-77
2023/08/02 01:14:30;;;;;;;3.85;1.83;;;;;;;21.57;100.00;99569.13;5020062;28;20489;-76
2023/08/02 01:16:57;;;;;;;3.35;1.63;;;;;;;21.82;100.00;99611.25;5014758;28;20049;-76
2023/08/02 01:19:22;;;;;;;1.45;0.88;;;;;;;22.28;100.00;99661.09;5010990;28;20029;-76
2023/08/02 01:21:49;;;;;;;3.72;1.73;;;;;;;21.69;100.00;99576.41;5000458;28;20527;-76
2023/08/02 01:24:15;;;;;;;4.00;1.92;;;;;;;22.29;100.00;99669.03;5016368;28;20045;-76
2023/08/02 01:26:45;;;;;;;3.60;2.22;;;;;;;21.82;100.00;99600.56;5015702;28;20491;-75
2023/08/02 01:29:18;;;;;;;4.28;2.40;;;;;;;22.04;100.00;99642.03;5013003;28;20444;-78
2023/08/02 01:31:44;;;;;;;1.77;1.20;;;;;;;21.96;100.00;99623.78;5003133;28;20456;-78
2023/08/02 01:34:11;;;;;;;3.88;1.95;;;;;;;21.95;100.00;99648.78;5016095;28;20072;-77
2023/08/02 01:36:37;;;;;;;3.08;1.52;;;;;;;22.17;100.00;99674.22;5015305;28;20042;-76
2023/08/02 01:39:02;;;;;;;3.55;1.73;;;;;;;22.14;100.00;99672.59;5009954;28;20026;-76
2023/08/02 01:41:28;;;;;;;4.85;3.25;;;;;;;21.96;100.00;99647.84;5019181;28;20356;-77
2023/08/02 01:43:53;;;;;;;3.38;1.98;;;;;;;22.02;100.00;99663.47;5017539;28;20045;-76
2023/08/02 01:46:19;;;;;;;3.60;2.28;;;;;;;21.64;100.00;99597.19;5017957;28;20038;-77
2023/08/02 01:48:44;;;;;;;4.35;2.40;;;;;;;21.25;100.00;99547.78;5023332;28;20062;-77
2023/08/02 01:51:09;;;;;;;3.38;2.67;;;;;;;21.94;100.00;99687.13;5010259;28;20467;-76
2023/08/02 01:53:35;;;;;;;3.58;2.03;;;;;;;21.95;100.00;99691.50;5022423;28;20360;-79
2023/08/02 01:56:00;;;;;;;4.03;2.53;;;;;;;21.26;100.00;99578.88;5018906;28;20041;-76
2023/08/02 01:58:26;;;;;;;2.42;1.85;;;;;;;21.65;100.00;99652.28;5021185;28;20048;-77
2023/08/02 02:00:51;;;;;;;4.07;3.45;;;;;;;21.79;100.00;99667.50;5000864;28;20038;-77
2023/08/02 02:03:17;;;;;;;3.03;1.70;;;;;;;21.85;100.00;99685.00;5003409;28;20038;-77
2023/08/02 02:05:52;;;;;;;4.68;2.38;;;;;;;21.78;100.00;99672.97;5011789;28;20045;-76
2023/08/02 02:08:17;;;;;;;4.63;1.98;;;;;;;21.23;100.00;99600.38;4994588;28;21411;-76
2023/08/02 02:10:49;;;;;;;3.30;2.15;;;;;;;21.65;100.00;99656.78;5001298;28;20030;-76
2023/08/02 02:13:19;;;;;;;3.10;1.90;;;;;;;21.22;100.00;99641.38;4991784;28;20038;-77
2023/08/02 02:15:44;;;;;;;4.10;2.60;;;;;;;20.40;100.00;99594.28;5003709;28;20033;-77
2023/08/02 02:18:10;;;;;;;3.53;2.28;;;;;;;20.87;100.00;99686.88;5009708;28;20544;-76
2023/08/02 02:20:35;;;;;;;8.95;3.90;;;;;;;20.52;100.00;99608.75;5008246;28;20026;-78
2023/08/02 02:23:01;;;;;;;7.63;3.03;;;;;;;20.92;100.00;99702.63;4995508;28;20486;-77
2023/08/02 02:25:26;;;;;;;3.70;2.55;;;;;;;20.72;100.00;99693.03;5009696;28;20033;-77
2023/08/02 02:27:52;;;;;;;4.45;2.55;;;;;;;20.74;100.00;99698.28;5004544;28;20039;-80
2023/08/02 02:30:17;;;;;;;3.15;2.33;;;;;;;20.76;100.00;99675.91;5021473;28;20705;-77
2023/08/02 02:32:42;;;;;;;6.18;2.20;;;;;;;20.18;100.00;99610.56;4999777;28;20375;-76
2023/08/02 02:35:12;;;;;;;4.13;2.53;;;;;;;20.79;100.00;99696.22;5018666;28;20088;-79
2023/08/02 02:37:38;;;;;;;4.68;2.85;;;;;;;20.64;100.00;99679.25;4999741;28;20039;-76
2023/08/02 02:40:04;;;;;;;8.20;2.35;;;;;;;20.75;100.00;99692.00;5014074;28;20131;-77
2023/08/02 02:42:30;;;;;;;3.33;2.20;;;;;;;19.87;100.00;99589.97;5009945;28;20072;-75
2023/08/02 02:44:55;;;;;;;4.32;3.70;;;;;;;20.41;100.00;99702.59;5000945;28;20033;-77
2023/08/02 02:47:21;;;;;;;4.10;2.72;;;;;;;20.34;100.00;99711.00;5019507;28;20083;-77
2023/08/02 02:49:46;;;;;;;4.03;2.75;;;;;;;19.87;100.00;99623.75;5001233;28;20399;-78
2023/08/02 02:52:12;;;;;;;4.07;3.05;;;;;;;19.78;100.00;99628.59;4999525;28;20073;-76
2023/08/02 02:54:37;;;;;;;2.90;1.67;;;;;;;19.45;100.00;99606.28;5013167;28;20512;-77
2023/08/02 02:57:03;;;;;;;8.07;2.65;;;;;;;19.76;100.00;99653.56;5004687;28;20030;-76
2023/08/02 02:59:28;;;;;;;5.43;2.88;;;;;;;20.02;100.00;99670.91;5022310;28;20022;-75
2023/08/02 03:01:54;;;;;;;4.22;2.92;;;;;;;19.55;100.00;99624.41;4997747;28;20137;-76
2023/08/02 03:04:19;;;;;;;4.88;2.67;;;;;;;19.54;100.00;99605.84;5003567;28;20044;-76
2023/08/02 03:06:45;;;;;;;10.30;2.65;;;;;;;20.08;100.00;99715.00;5003420;28;20518;-78
2023/08/02 03:09:10;;;;;;;5.38;2.75;;;;;;;20.18;100.00;99721.56;4995448;28;20033;-75
2023/08/02 03:11:35;;;;;;;4.18;2.03;;;;;;;19.41;100.00;99608.25;5013923;28;20057;-75
2023/08/02 03:14:01;;;;;;;5.20;2.38;;;;;;;20.05;100.00;99708.03;4989689;28;20101;-80
2023/08/02 03:16:26;;;;;;;5.68;2.40;;;;;;;19.92;100.00;99677.63;5003297;28;20068;-76
2023/08/02 03:18:54;;;;;;;7.18;2.78;;;;;;;20.08;100.00;99723.84;5012832;28;20042;-77
2023/08/02 03:21:20;;;;;;;8.10;3.67;;;;;;;19.96;100.00;99716.47;5001560;28;20034;-76
2023/08/02 03:23:45;;;;;;;3.67;2.25;;;;;;;19.59;100.00;99689.81;4991645;28;20085;-78
2023/08/02 03:26:11;;;;;;;4.82;2.55;;;;;;;19.34;100.00;99626.31;4995014;28;20498;-76
2023/08/02 03:28:36;;;;;;;4.82;2.53;;;;;;;19.82;100.00;99671.91;4996023;28;20038;-78
2023/08/02 03:31:02;;;;;;;4.90;2.10;;;;;;;19.64;100.00;99595.59;4990663;28;20043;-77
2023/08/02 03:33:28;;;;;;;2.83;1.85;;;;;;;19.51;100.00;99608.66;5005314;28;20389;-75
2023/08/02 03:35:53;;;;;;;3.47;1.95;;;;;;;19.50;100.00;99614.91;5016995;28;20060;-76
2023/08/02 03:38:18;;;;;;;6.97;3.10;;;;;;;20.23;100.00;99703.56;4992840;28;20027;-78
2023/08/02 03:40:44;;;;;;;3.97;2.53;;;;;;;19.58;100.00;99588.78;5011589;28;20048;-77
2023/08/02 03:43:10;;;;;;;4.60;1.98;;;;;;;19.96;100.00;99703.16;4997768;28;20049;-77
2023/08/02 03:45:35;;;;;;;3.17;2.20;;;;;;;20.00;100.00;99710.06;4997943;28;20064;-77
2023/08/02 03:48:01;;;;;;;3.83;2.72;;;;;;;20.01;100.00;99715.28;4995196;28;20069;-76
2023/08/02 03:50:27;;;;;;;3.85;2.95;;;;;;;19.62;100.00;99611.66;5001797;28;20022;-77
2023/08/02 03:52:53;;;;;;;4.63;2.30;;;;;;;20.24;100.00;99715.94;4995408;28;20039;-80
2023/08/02 03:55:18;;;;;;;4.35;2.08;;;;;;;20.00;100.00;99670.13;5000170;28;20078;-76
2023/08/02 03:57:43;;;;;;;3.40;2.00;;;;;;;19.89;100.00;99665.31;5000678;28;20466;-77
2023/08/02 04:00:09;;;;;;;4.47;2.67;;;;;;;20.30;100.00;99688.09;4996400;28;20038;-75
2023/08/02 04:02:35;;;;;;;5.22;2.70;;;;;;;20.32;100.00;99703.09;4988527;28;20023;-76
2023/08/02 04:05:01;;;;;;;4.95;3.22;;;;;;;20.09;100.00;99652.78;5012510;28;20131;-76
2023/08/02 04:07:26;;;;;;;5.25;2.90;;;;;;;20.42;100.00;99711.47;5039369;28;20037;-76
2023/08/02 04:09:52;;;;;;;3.40;1.92;;;;;;;20.29;100.00;99681.06;5010471;28;20061;-76
2023/08/02 04:12:19;;;;;;;6.60;2.35;;;;;;;20.41;100.00;99691.09;5012515;28;20717;-77
2023/08/02 04:14:45;;;;;;;3.67;2.13;;;;;;;20.05;100.00;99601.50;5012159;28;20030;-76
2023/08/02 04:17:10;;;;;;;5.50;2.50;;;;;;;20.13;100.00;99627.72;5019161;28;20022;-77
2023/08/02 04:19:35;;;;;;;5.35;3.03;;;;;;;20.13;100.00;99611.72;5014293;28;20042;-76
2023/08/02 04:22:01;;;;;;;6.47;1.88;;;;;;;20.84;100.00;99702.19;5018130;28;20034;-76
2023/08/02 04:24:27;;;;;;;6.18;3.30;;;;;;;21.18;100.00;99698.53;5013182;28;20050;-77
2023/08/02 04:26:52;;;;;;;3.58;2.38;;;;;;;21.36;100.00;99701.97;5013412;28;20036;-76
2023/08/02 04:29:18;;;;;;;5.15;3.03;;;;;;;20.82;100.00;99592.06;5016363;28;20033;-77
2023/08/02 04:31:44;;;;;;;5.60;2.97;;;;;;;21.19;100.00;99654.00;5016272;28;20083;-76
2023/08/02 04:34:09;;;;;;;11.48;2.75;;;;;;;21.19;100.00;99609.53;5021846;28;20041;-76
2023/08/02 04:36:35;;;;;;;3.75;2.60;;;;;;;21.11;100.00;99582.41;5017320;28;20030;-76
2023/08/02 04:39:03;;;;;;;4.57;2.40;;;;;;;21.32;100.00;99585.66;5016180;28;20037;-76
2023/08/02 04:41:29;;;;;;;4.82;2.88;;;;;;;21.79;100.00;99666.66;5024981;28;20033;-77
2023/08/02 04:43:54;;;;;;;6.10;3.08;;;;;;;21.67;100.00;99638.84;5017324;28;20041;-77
2023/08/02 04:46:21;;;;;;;4.75;2.13;;;;;;;21.90;100.00;99667.75;5021330;28;20193;-75
2023/08/02 04:48:47;;;;;;;3.78;2.55;;;;;;;22.03;100.00;99675.03;5027815;28;20037;-74
2023/08/02 04:51:12;;;;;;;5.80;2.72;;;;;;;21.62;100.00;99624.91;5013231;28;20042;-76
2023/08/02 04:53:38;;;;;;;6.22;3.75;;;;;;;21.55;100.00;99660.94;5017780;28;20030;-77
2023/08/02 04:56:09;;;;;;;6.25;3.20;;;;;;;20.73;100.00;99557.91;5012073;28;20163;-76
2023/08/02 04:58:34;;;;;;;4.97;3.83;;;;;;;21.64;100.00;99676.44;5017450;28;20501;-77
2023/08/02 05:01:02;;;;;;;11.85;3.17;;;;;;;21.52;100.00;99678.00;5012634;28;20061;-77
2023/08/02 05:03:27;;;;;;;7.07;4.20;;;;;;;21.50;100.00;99683.41;5018610;28;20088;-76
2023/08/02 05:06:06;;;;;;;6.07;4.07;;;;;;;21.41;100.00;99640.38;5013200;28;20030;-75
2023/08/02 05:08:34;;;;;;;3.30;1.85;;;;;;;21.66;100.00;99663.84;5019030;28;20030;-76
2023/08/02 05:10:59;;;;;;;5.93;2.92;;;;;;;21.17;100.00;99579.41;5017830;28;20065;-77
2023/08/02 05:13:26;;;;;;;8.05;3.38;;;;;;;21.82;100.00;99667.34;5006867;28;20073;-80
2023/08/02 05:15:53;;;;;;;5.10;3.10;;;;;;;21.96;100.00;99662.97;5009572;28;20512;-79
2023/08/02 05:18:19;;;;;;;5.78;3.10;;;;;;;21.59;100.00;99598.41;5011325;28;20120;-76
2023/08/02 05:20:44;;;;;;;3.97;2.60;;;;;;;21.79;100.00;99579.38;5016916;28;20128;-76
2023/08/02 05:23:10;;;;;;;10.20;3.90;;;;;;;22.91;100.00;99622.41;5009240;28;20485;-77
2023/08/02 05:25:35;;;;;;;8.25;3.72;;;;;;;23.46;100.00;99672.44;5015833;28;20045;-77
2023/08/02 05:28:01;;;;;;;5.90;3.75;;;;;;;23.16;100.00;99667.25;5016386;28;20076;-77
2023/08/02 05:30:29;;;;;;;6.45;4.20;;;;;;;23.07;100.00;99699.94;5012572;28;20609;-77
2023/08/02 05:32:54;;;;;;;4.22;2.85;;;;;;;23.00;100.00;99634.41;5012474;28;20472;-76
2023/08/02 05:35:21;;;;;;;4.18;2.72;;;;;;;23.02;100.00;99598.56;5019512;28;20017;-76
2023/08/02 05:37:46;;;;;;;6.43;3.53;;;;;;;22.85;100.00;99571.97;5017075;28;20068;-77
2023/08/02 05:40:12;;;;;;;4.78;3.08;;;;;;;22.96;100.00;99589.06;5003705;28;20034;-75
2023/08/02 05:42:37;;;;;;;6.18;3.00;;;;;;;22.79;100.00;99570.56;5016042;28;20430;-80
2023/08/02 05:45:03;;;;;;;3.40;2.25;;;;;;;23.64;100.00;99656.09;5023558;28;20037;-76
2023/08/02 05:47:30;;;;;;;6.45;3.05;;;;;;;23.73;100.00;99585.84;5017155;28;20037;-77
2023/08/02 05:49:55;;;;;;;6.55;2.75;;;;;;;23.85;100.00;99667.25;5009194;28;20038;-77
2023/08/02 05:52:21;;;;;;;6.80;3.25;;;;;;;23.19;100.00;99594.78;5019468;28;20049;-77
2023/08/02 05:54:46;;;;;;;8.23;3.33;;;;;;;23.91;100.00;99681.09;5016314;28;20034;-78
2023/08/02 05:57:12;;;;;;;10.10;2.47;;;;;;;24.21;100.00;99688.03;5020039;28;20038;-76
2023/08/02 05:59:38;;;;;;;3.80;2.42;;;;;;;23.92;100.00;99612.25;5023702;28;20757;-77
2023/08/02 06:02:07;;;;;;;5.25;3.05;;;;;;;23.89;100.00;99601.75;5007070;28;20045;-76
2023/08/02 06:04:35;;;;;;;4.03;2.10;;;;;;;24.69;100.00;99639.13;5013098;28;20563;-78
2023/08/02 06:07:01;;;;;;;5.97;2.28;;;;;;;24.97;100.00;99646.91;5015845;28;20042;-77
2023/08/02 06:09:27;;;;;;;5.35;3.08;;;;;;;24.71;100.00;99648.78;5010856;28;20501;-76
2023/08/02 06:11:52;;;;;;;9.23;4.07;;;;;;;24.81;100.00;99657.03;5012078;28;20030;-75
2023/08/02 06:14:18;;;;;;;4.25;2.80;;;;;;;24.84;100.00;99670.22;5013723;28;20033;-75
2023/08/02 06:16:43;;;;;;;6.13;4.10;;;;;;;24.50;100.00;99596.66;5010410;28;20049;-76
2023/08/02 06:19:09;;;;;;;4.35;2.45;;;;;;;24.36;100.00;99562.75;5017257;28;20109;-80
2023/08/02 06:21:34;;;;;;;4.93;3.00;;;;;;;24.42;100.00;99654.38;5008500;28;20389;-77
2023/08/02 06:24:01;;;;;;;4.47;2.95;;;;;;;24.23;100.00;99571.66;5016416;28;20437;-75
2023/08/02 06:26:27;;;;;;;7.38;3.75;;;;;;;24.62;100.00;99572.50;5013676;28;20117;-77
2023/08/02 06:28:52;;;;;;;4.40;2.40;;;;;;;25.15;100.00;99643.88;5014402;28;20038;-76
2023/08/02 06:31:18;;;;;;;7.13;2.67;;;;;;;24.92;100.00;99667.88;5011624;28;20045;-75
2023/08/02 06:33:43;;;;;;;5.78;2.25;;;;;;;25.05;100.00;99657.09;5012800;28;20509;-76
2023/08/02 06:36:09;;;;;;;6.25;2.88;;;;;;;25.21;100.00;99673.84;5014222;28;20042;-79
2023/08/02 06:38:34;;;;;;;4.60;3.03;;;;;;;25.14;100.00;99661.81;5013467;28;20045;-77
2023/08/02 06:41:00;;;;;;;4.57;2.38;;;;;;;25.21;100.00;99673.00;5014412;28;20033;-76
2023/08/02 06:43:25;;;;;;;5.63;3.95;;;;;;;24.75;100.00;99602.00;5006909;28;20052;-74
2023/08/02 06:45:51;;;;;;;3.65;3.00;;;;;;;24.45;100.00;99575.50;5016440;28;20509;-77
2023/08/02 06:48:19;;;;;;;5.22;2.95;;;;;;;24.96;100.00;99685.47;5021419;28;20758;-78
2023/08/02 06:50:44;;;;;;;6.38;5.05;;;;;;;25.14;100.00;99698.53;5005131;28;20433;-77
2023/08/02 06:53:10;;;;;;;3.33;1.85;;;;;;;25.10;100.00;99691.66;5020074;28;20068;-77
2023/08/02 06:55:35;;;;;;;5.80;3.13;;;;;;;24.68;100.00;99616.81;5018304;28;20042;-77
2023/08/02 06:58:01;;;;;;;11.45;3.30;;;;;;;25.12;100.00;99679.84;5014154;28;20616;-76
2023/08/02 07:00:29;;;;;;;3.22;2.20;;;;;;;24.64;100.00;99615.31;5015566;28;20092;-77
2023/08/02 07:02:58;;;;;;;2.50;1.67;;;;;;;25.27;100.00;99702.94;5011402;28;20030;-79
2023/08/02 07:05:26;;;;;;;5.97;3.00;;;;;;;24.81;100.00;99603.38;5009005;28;20088;-77
2023/08/02 07:07:52;;;;;;;3.40;2.22;;;;;;;24.94;100.00;99601.53;5011234;28;20050;-76
2023/08/02 07:10:17;;;;;;;3.53;1.90;;;;;;;24.99;100.00;99611.94;5017012;28;20354;-78
2023/08/02 07:12:43;;;;;;;5.28;3.05;;;;;;;25.53;100.00;99693.97;5009210;28;20066;-76
2023/08/02 07:15:09;;;;;;;5.20;2.90;;;;;;;25.53;100.00;99684.06;5014106;28;20447;-77
2023/08/02 07:17:34;;;;;;;6.95;2.65;;;;;;;25.70;100.00;99688.19;5013831;28;20108;-76
2023/08/02 07:20:00;;;;;;;3.17;1.67;;;;;;;25.20;100.00;99594.25;5009132;28;20061;-76
2023/08/02 07:22:25;;;;;;;3.80;2.47;;;;;;;25.37;100.00;99606.44;5008525;28;20681;-78
2023/08/02 07:24:50;;;;;;;2.72;1.40;;;;;;;25.41;100.00;99594.50;5013731;28;20604;-78
2023/08/02 07:27:16;;;;;;;3.70;2.47;;;;;;;25.01;100.00;99567.03;5008955;28;20076;-76
2023/08/02 07:29:41;;;;;;;4.13;2.70;;;;;;;25.90;100.00;99670.59;5012325;28;20108;-79
2023/08/02 07:32:07;;;;;;;6.38;3.50;;;;;;;26.18;100.00;99677.41;5013373;28;20382;-76
2023/08/02 07:34:33;;;;;;;4.75;2.60;;;;;;;25.26;100.00;99491.78;5016311;28;20037;-78
2023/08/02 07:36:59;;;;;;;3.50;1.75;;;;;;;25.66;100.00;99573.81;5015620;28;20550;-77
2023/08/02 07:39:24;;;;;;;3.47;1.95;;;;;;;25.95;100.00;99641.53;5015029;28;20037;-78
2023/08/02 07:41:50;;;;;;;5.05;1.98;;;;;;;26.41;100.00;99669.38;5012228;28;20056;-77
2023/08/02 07:44:16;;;;;;;5.75;4.13;;;;;;;25.95;100.00;99603.91;5018284;28;20042;-76
2023/08/02 07:46:41;;;;;;;3.83;2.17;;;;;;;25.94;100.00;99641.63;5021570;28;20041;-76
2023/08/02 07:49:07;;;;;;;3.22;1.98;;;;;;;25.88;100.00;99622.31;5016507;28;20041;-75
2023/08/02 07:51:32;;;;;;;6.22;2.85;;;;;;;25.31;100.00;99563.94;5017058;28;20037;-75
2023/08/02 07:53:58;;;;;;;4.15;2.65;;;;;;;25.45;100.00;99576.31;5021486;28;20026;-78
2023/08/02 07:56:23;;;;;;;4.32;2.92;;;;;;;26.03;100.00;99670.50;5004466;28;20030;-77
2023/08/02 07:58:48;;;;;;;3.08;1.95;;;;;;;25.84;100.00;99588.53;5005514;28;20034;-77
2023/08/02 08:01:14;;;;;;;3.15;2.85;;;;;;;25.98;100.00;99570.53;5001704;28;20053;-78
2023/08/02 08:03:39;;;;;;;4.40;2.10;;;;;;;26.44;100.00;99636.88;5005703;28;20600;-81
2023/08/02 08:06:12;;;;;;;4.00;2.30;;;;;;;26.72;100.00;99670.56;4999613;28;20580;-77
2023/08/02 08:08:38;;;;;;;;;;;;;;;26.86;100.00;99674.88;5002623;28;20414;-77
2023/08/02 08:11:03;;;;;;;2.10;1.45;;;;;;;26.98;100.00;99676.56;5009079;28;19925;-76
2023/08/02 08:13:29;;;;;;;3.00;1.83;;;;;;;26.95;100.00;99666.06;5000619;28;20046;-76
2023/08/02 08:15:54;;;;;;;2.67;1.98;;;;;;;26.80;100.00;99661.88;5005672;28;20046;-78
2023/08/02 08:18:20;;;;;;;3.90;2.42;;;;;;;27.11;100.00;99682.69;5005465;28;20038;-76
2023/08/02 08:20:45;;;;;;;2.95;1.60;;;;;;;27.41;100.00;99683.03;5005558;28;20545;-77
2023/08/02 08:23:11;;;;;;;3.22;1.77;;;;;;;26.89;100.00;99586.59;5005230;28;20359;-77
2023/08/02 08:25:37;;;;;;;2.65;1.63;;;;;;;27.28;100.00;99603.22;4997834;28;20046;-75
2023/08/02 08:28:02;;;;;;;2.42;1.23;;;;;;;27.07;100.00;99545.72;5005498;28;20390;-76
2023/08/02 08:30:28;;;;;;;2.88;1.58;;;;;;;27.87;100.00;99665.78;5005747;28;20072;-76
2023/08/02 08:32:54;;;;;;;2.97;1.73;;;;;;;28.25;100.00;99684.09;5001023;28;20041;-78
2023/08/02 08:35:19;;;;;;;5.47;2.88;;;;;;;28.50;100.00;99679.31;5005688;28;20106;-77
2023/08/02 08:37:48;;;;;;;3.72;2.33;;;;;;;28.62;100.00;99678.25;5002435;28;20042;-76
2023/08/02 08:40:16;;;;;;;4.32;2.13;;;;;;;28.96;100.00;99677.97;5004778;28;20371;-77
2023/08/02 08:43:01;;;;;;;2.63;2.05;;;;;;;28.87;100.00;99635.56;5003076;28;20533;-77
2023/08/02 08:45:26;;;;;;;3.30;2.22;;;;;;;29.26;100.00;99660.88;5004707;28;20121;-79
2023/08/02 08:47:53;;;;;;;4.35;1.92;;;;;;;29.08;100.00;99578.78;5005626;28;20026;-77
2023/08/02 08:50:20;;;;;;;3.13;1.45;;;;;;;29.21;100.00;99569.44;4999511;28;20064;-76
2023/08/02 08:52:50;;;;;;;3.63;1.45;;;;;;;29.54;100.00;99586.22;5005347;28;20050;-77
2023/08/02 08:55:16;;;;;;;5.05;1.80;;;;;;;29.62;100.00;99583.69;5008873;28;20034;-78
2023/08/02 08:57:43;;;;;;;3.60;1.98;;;;;;;30.18;100.00;99624.50;5008824;28;20536;-76
2023/08/02 09:00:10;;;;;;;5.80;3.75;;;;;;;30.39;83.45;99682.06;5005653;28;20034;-76
2023/08/02 09:02:38;;;;;;;4.90;2.40;;;;;;;29.52;90.20;99638.75;5006202;28;20100;-77
2023/08/02 09:05:04;;;;;;;3.35;1.48;;;;;;;29.37;86.57;99581.53;4998656;28;20152;-78
2023/08/02 09:07:31;;;;;;;2.03;1.40;;;;;;;29.82;81.60;99581.00;5003498;28;20137;-79
2023/08/02 09:09:56;;;;;;;2.25;1.45;;;;;;;31.17;83.52;99665.56;5009127;28;20042;-78
2023/08/02 09:12:25;;;;;;;3.22;2.88;;;;;;;31.57;81.38;99674.34;5008108;28;20371;-78
2023/08/02 09:15:02;;;;;;;2.67;2.00;;;;;;;31.72;76.47;99662.78;5008915;28;20060;-76
2023/08/02 09:17:44;;;;;;;2.90;1.55;;;;;;;31.40;74.64;99567.50;5006913;28;20076;-76
2023/08/02 09:20:09;;;;;;;2.22;1.45;;;;;;;31.86;72.83;99588.13;5008715;28;20378;-77
2023/08/02 09:22:35;;;;;;;3.45;1.80;;;;;;;32.50;73.28;99648.56;5006574;28;20042;-77
2023/08/02 09:25:07;;;;;;;3.70;1.98;;;;;;;32.65;69.21;99664.25;5008881;28;20940;-78
2023/08/02 09:27:33;;;;;;;4.75;3.08;;;;;;;32.75;61.41;99649.53;4999892;28;20074;-78
2023/08/02 09:29:58;;;;;;;5.43;2.35;;;;;;;33.04;62.83;99612.09;5007791;28;20022;-79
2023/08/02 09:32:25;;;;;;;3.65;2.78;;;;;;;32.59;61.90;99595.09;5004349;28;20036;-77
2023/08/02 09:34:56;;;;;;;3.17;1.95;;;;;;;32.30;58.41;99603.59;5003637;28;20145;-77
2023/08/02 09:37:32;;;;;;;3.90;2.40;;;;;;;31.74;59.98;99665.34;5007674;28;20053;-78
2023/08/02 09:39:58;;;;;;;5.00;2.72;;;;;;;32.69;64.91;99650.19;5018358;28;20042;-77
2023/08/02 09:42:25;;;;;;;2.80;1.80;;;;;;;33.48;59.34;99669.03;5006463;28;20544;-79
2023/08/02 09:44:59;;;;;;;2.55;1.63;;;;;;;33.76;55.53;99666.91;5001481;28;20040;-78
2023/08/02 09:47:28;;;;;;;3.92;2.17;;;;;;;33.55;57.92;99649.19;5004085;28;20018;-77
2023/08/02 09:50:06;;;;;;;3.00;2.00;;;;;;;32.96;55.47;99661.88;5005844;28;20050;-78
2023/08/02 09:52:32;;;;;;;4.07;2.20;;;;;;;32.63;57.81;99596.50;5004281;28;20818;-79
2023/08/02 09:54:57;;;;;;;3.95;2.80;;;;;;;32.71;56.57;99623.72;5007546;28;20050;-77
2023/08/02 09:57:28;;;;;;;3.65;1.75;;;;;;;31.98;55.91;99569.75;5007652;28;20093;-78
2023/08/02 09:59:55;;;;;;;3.45;1.80;;;;;;;33.39;61.08;99646.44;5007829;28;20121;-78
2023/08/02 10:02:25;;;;;;;3.88;2.10;;;;;;;33.54;54.33;99593.06;5000784;28;20112;-78
2023/08/02 10:04:56;;;;;;;2.78;1.85;;;;;;;34.00;53.97;99653.34;5007226;28;20125;-78
2023/08/02 10:07:32;;;;;;;4.85;3.00;;;;;;;34.62;49.86;99652.78;5006057;28;20069;-78
2023/08/02 10:10:07;;;;;;;3.72;1.88;;;;;;;34.41;49.51;99652.47;5007817;28;20543;-78
2023/08/02 10:12:38;;;;;;;4.03;2.63;;;;;;;34.74;50.38;99645.09;5004176;28;20092;-80
2023/08/02 10:15:04;;;;;;;3.47;2.08;;;;;;;34.74;49.50;99647.81;5003773;28;20035;-78
2023/08/02 10:17:31;;;;;;;2.05;1.48;;;;;;;32.82;51.03;99560.06;5007027;28;20022;-80
2023/08/02 10:19:58;;;;;;;4.05;2.67;;;;;;;33.79;54.21;99629.34;5007028;28;20056;-79
2023/08/02 10:22:25;;;;;;;2.47;1.40;;;;;;;34.05;49.98;99641.94;5007266;28;20521;-77
2023/08/02 10:24:51;;;;;;;1.77;1.23;;;;;;;33.60;50.33;99583.41;5008029;28;20060;-76
2023/08/02 10:27:19;;;;;;;3.35;2.25;;;;;;;33.22;51.81;99553.06;5007434;28;20037;-77
2023/08/02 10:29:46;;;;;;;2.90;1.83;;;;;;;33.37;51.70;99542.38;5000769;28;20021;-77
2023/08/02 10:32:17;;;;;;;2.72;1.90;;;;;;;34.18;51.66;99649.59;4994266;28;20430;-77
2023/08/02 10:34:47;;;;;;;3.15;1.38;;;;;;;32.93;52.32;99616.84;5005678;28;20056;-76
2023/08/02 10:37:13;;;;;;;7.38;2.00;;;;;;;32.94;53.28;99531.56;5002496;28;20627;-80
2023/08/02 10:39:45;;;;;;;6.55;2.17;;;;;;;33.10;52.81;99625.94;5007345;28;20045;-76
2023/08/02 10:42:14;;;;;;;4.30;1.50;;;;;;;33.97;54.99;99625.59;5007133;28;20159;-79
2023/08/02 10:44:55;;;;;;;7.63;4.35;;;;;;;34.56;48.43;99622.63;5005338;28;20028;-80
2023/08/02 10:47:34;;;;;;;3.90;3.05;;;;;;;34.85;48.82;99628.38;4998917;28;20051;-78
2023/08/02 10:50:01;;;;;;;4.35;3.35;;;;;;;33.97;48.32;99546.63;5004784;28;20034;-77
2023/08/02 10:52:33;;;;;;;5.72;3.35;;;;;;;33.89;51.08;99623.72;5007010;28;20538;-78
2023/08/02 10:55:05;;;;;;;;;;;;;;;34.33;49.31;99619.81;5007479;28;20046;-79
2023/08/02 10:57:30;;;;;;;3.70;2.33;;;;;;;34.52;47.84;99534.94;4995840;28;19913;-79
2023/08/02 10:59:56;;;;;;;4.00;2.95;;;;;;;35.55;47.83;99610.28;5000743;28;20112;-77
2023/08/02 11:02:25;;;;;;;4.25;2.33;;;;;;;35.40;45.92;99592.97;5038200;28;20041;-79
2023/08/02 11:04:51;;;;;;;2.90;2.05;;;;;;;35.51;47.48;99614.41;5001043;28;20064;-78
2023/08/02 11:07:21;;;;;;;4.72;2.83;;;;;;;34.99;46.97;99615.03;5006683;28;20046;-78
2023/08/02 11:09:54;;;;;;;3.30;2.20;;;;;;;34.67;47.17;99560.44;5006756;28;20513;-78
2023/08/02 11:12:21;;;;;;;4.60;1.88;;;;;;;33.96;47.71;99613.00;5000614;28;20100;-79
2023/08/02 11:14:49;;;;;;;2.42;1.80;;;;;;;34.20;48.30;99587.66;5033553;28;20500;-77
2023/08/02 11:17:19;;;;;;;4.30;2.35;;;;;;;35.17;46.76;99609.31;5006188;28;20026;-79
2023/08/02 11:19:49;;;;;;;3.03;2.13;;;;;;;35.19;46.11;99528.16;5005090;28;20124;-78
2023/08/02 11:22:15;;;;;;;5.45;4.82;;;;;;;35.59;46.01;99606.16;5036790;28;20045;-79
2023/08/02 11:24:45;;;;;;;3.05;1.90;;;;;;;34.62;46.53;99521.13;5036847;28;20407;-77